sensor_id;sensor_type;location;lat;lon;timestamp;pressure;altitude;pressure_sealevel;temperature;humidity
68525;BME280;55524;51.380;13.372;2023-08-20T00:02:26;100742.31;;;23.47;100.00
68525;BME280;55524;51.380;13.372;2023-08-20T00:04:56;100739.75;;;23.45;100.00
68525;BME280;55524;51.380;13.372;2023-08-20T00:07:23;100741.31;;;23.48;100.00
68525;BME280;55524;51.380;13.372;2023-08-20T00:09:50;100743.06;;;23.49;100.00
68525;BME280;55524;51.380;13.372;2023-08-20T00:12:16;100744.50;;;23.53;100.00
68525;BME280;55524;51.380;13.372;2023-08-20T00:14:53;100746.94;;;23.56;100.00
68525;BME280;55524;51.380;13.372;2023-08-20T00:17:25;100753.19;;;23.56;100.00
68525;BME280;55524;51.380;13.372;2023-08-20T00:19:54;100757.72;;;23.56;100.00
68525;BME280;55524;51.380;13.372;2023-08-20T00:22:25;100757.41;;;23.49;100.00
68525;BME280;55524;51.380;13.372;2023-08-20T00:24:53;100755.09;;;23.45;100.00
68525;BME280;55524;51.380;13.372;2023-08-20T00:27:20;100746.72;;;23.48;100.00
68525;BME280;55524;51.380;13.372;2023-08-20T00:29:46;100741.47;;;23.46;100.00
68525;BME280;55524;51.380;13.372;2023-08-20T00:32:14;100747.72;;;23.47;100.00
68525;BME280;55524;51.380;13.372;2023-08-20T00:34:40;100754.81;;;23.48;100.00
68525;BME280;55524;51.380;13.372;2023-08-20T00:37:06;100769.19;;;23.48;100.00
68525;BME280;55524;51.380;13.372;2023-08-20T00:39:33;100767.75;;;23.44;100.00
68525;BME280;55524;51.380;13.372;2023-08-20T00:41:59;100765.69;;;23.37;100.00
68525;BME280;55524;51.380;13.372;2023-08-20T00:44:25;100768.66;;;23.34;100.00
68525;BME280;55524;51.380;13.372;2023-08-20T00:46:52;100770.59;;;23.31;100.00
68525;BME280;55524;51.380;13.372;2023-08-20T00:49:19;100779.94;;;23.27;100.00
68525;BME280;55524;51.380;13.372;2023-08-20T00:51:45;100778.31;;;23.15;100.00
68525;BME280;55524;51.380;13.372;2023-08-20T00:54:12;100782.97;;;23.13;100.00
68525;BME280;55524;51.380;13.372;2023-08-20T00:56:39;100790.22;;;23.13;100.00
68525;BME280;55524;51.380;13.372;2023-08-20T00:59:07;100795.13;;;23.07;100.00
68525;BME280;55524;51.380;13.372;2023-08-20T01:01:33;100788.88;;;23.07;100.00
68525;BME280;55524;51.380;13.372;2023-08-20T01:03:59;100778.84;;;23.09;100.00
68525;BME280;55524;51.380;13.372;2023-08-20T01:06:46;100784.94;;;23.11;100.00
68525;BME280;55524;51.380;13.372;2023-08-20T01:09:34;100789.63;;;23.09;100.00
68525;BME280;55524;51.380;13.372;2023-08-20T01:12:03;100788.50;;;23.12;100.00
68525;BME280;55524;51.380;13.372;2023-08-20T01:14:32;100792.91;;;23.13;100.00
68525;BME280;55524;51.380;13.372;2023-08-20T01:16:58;100794.88;;;23.11;100.00
68525;BME280;55524;51.380;13.372;2023-08-20T01:19:25;100802.25;;;23.09;100.00
68525;BME280;55524;51.380;13.372;2023-08-20T01:30:21;100815.63;;;22.88;100.00
68525;BME280;55524;51.380;13.372;2023-08-20T01:32:50;100816.03;;;22.83;100.00
68525;BME280;55524;51.380;13.372;2023-08-20T01:35:17;100812.97;;;22.76;100.00
68525;BME280;55524;51.380;13.372;2023-08-20T01:37:43;100816.19;;;22.70;100.00
68525;BME280;55524;51.380;13.372;2023-08-20T01:40:10;100820.34;;;22.74;100.00
68525;BME280;55524;51.380;13.372;2023-08-20T01:42:37;100824.13;;;22.72;100.00
68525;BME280;55524;51.380;13.372;2023-08-20T01:45:04;100828.81;;;22.70;100.00
68525;BME280;55524;51.380;13.372;2023-08-20T01:47:32;100832.47;;;22.69;100.00
68525;BME280;55524;51.380;13.372;2023-08-20T01:49:58;100826.22;;;22.68;100.00
68525;BME280;55524;51.380;13.372;2023-08-20T01:52:25;100836.91;;;22.70;100.00
68525;BME280;55524;51.380;13.372;2023-08-20T01:54:52;100832.22;;;22.72;100.00
68525;BME280;55524;51.380;13.372;2023-08-20T01:57:19;100826.59;;;22.75;100.00
68525;BME280;55524;51.380;13.372;2023-08-20T01:59:45;100842.16;;;22.71;100.00
68525;BME280;55524;51.380;13.372;2023-08-20T02:02:12;100839.34;;;22.73;100.00
68525;BME280;55524;51.380;13.372;2023-08-20T02:04:38;100840.19;;;22.73;100.00
68525;BME280;55524;51.380;13.372;2023-08-20T02:07:04;100849.25;;;22.72;100.00
68525;BME280;55524;51.380;13.372;2023-08-20T02:09:31;100850.00;;;22.74;100.00
68525;BME280;55524;51.380;13.372;2023-08-20T02:11:57;100841.91;;;22.74;100.00
68525;BME280;55524;51.380;13.372;2023-08-20T02:14:23;100844.59;;;22.74;100.00
68525;BME280;55524;51.380;13.372;2023-08-20T02:16:50;100851.59;;;22.77;100.00
68525;BME280;55524;51.380;13.372;2023-08-20T02:19:16;100856.69;;;22.80;100.00
68525;BME280;55524;51.380;13.372;2023-08-20T02:21:42;100859.53;;;22.78;100.00
68525;BME280;55524;51.380;13.372;2023-08-20T02:24:09;100858.06;;;22.74;100.00
68525;BME280;55524;51.380;13.372;2023-08-20T02:26:35;100859.16;;;22.72;100.00
68525;BME280;55524;51.380;13.372;2023-08-20T02:29:01;100858.31;;;22.71;100.00
68525;BME280;55524;51.380;13.372;2023-08-20T02:31:28;100862.00;;;22.70;100.00
68525;BME280;55524;51.380;13.372;2023-08-20T02:33:55;100862.09;;;22.69;100.00
68525;BME280;55524;51.380;13.372;2023-08-20T02:36:21;100862.25;;;22.67;100.00
68525;BME280;55524;51.380;13.372;2023-08-20T02:38:47;100859.19;;;22.61;100.00
68525;BME280;55524;51.380;13.372;2023-08-20T02:41:13;100858.09;;;22.52;100.00
68525;BME280;55524;51.380;13.372;2023-08-20T02:43:40;100867.91;;;22.42;100.00
68525;BME280;55524;51.380;13.372;2023-08-20T02:46:06;100867.53;;;22.35;100.00
68525;BME280;55524;51.380;13.372;2023-08-20T02:48:33;100869.84;;;22.28;100.00
68525;BME280;55524;51.380;13.372;2023-08-20T02:50:59;100865.69;;;22.24;100.00
68525;BME280;55524;51.380;13.372;2023-08-20T02:53:26;100868.53;;;22.23;100.00
68525;BME280;55524;51.380;13.372;2023-08-20T02:55:52;100860.56;;;22.21;100.00
68525;BME280;55524;51.380;13.372;2023-08-20T02:58:18;100856.53;;;22.27;100.00
68525;BME280;55524;51.380;13.372;2023-08-20T03:00:45;100859.69;;;22.32;100.00
68525;BME280;55524;51.380;13.372;2023-08-20T03:03:11;100861.31;;;22.34;100.00
68525;BME280;55524;51.380;13.372;2023-08-20T03:05:38;100860.69;;;22.31;100.00
68525;BME280;55524;51.380;13.372;2023-08-20T03:08:05;100861.91;;;22.27;100.00
68525;BME280;55524;51.380;13.372;2023-08-20T03:10:31;100869.13;;;22.26;100.00
68525;BME280;55524;51.380;13.372;2023-08-20T03:13:01;100868.00;;;22.29;100.00
68525;BME280;55524;51.380;13.372;2023-08-20T03:15:29;100869.75;;;22.30;100.00
68525;BME280;55524;51.380;13.372;2023-08-20T03:17:55;100878.56;;;22.32;100.00
68525;BME280;55524;51.380;13.372;2023-08-20T03:20:21;100871.84;;;22.26;100.00
68525;BME280;55524;51.380;13.372;2023-08-20T03:22:48;100879.91;;;22.26;100.00
68525;BME280;55524;51.380;13.372;2023-08-20T03:25:14;100885.78;;;22.20;100.00
68525;BME280;55524;51.380;13.372;2023-08-20T03:27:41;100886.28;;;22.14;100.00
68525;BME280;55524;51.380;13.372;2023-08-20T03:30:07;100887.50;;;22.21;100.00
68525;BME280;55524;51.380;13.372;2023-08-20T03:32:34;100885.16;;;22.17;100.00
68525;BME280;55524;51.380;13.372;2023-08-20T03:35:00;100893.50;;;22.14;100.00
68525;BME280;55524;51.380;13.372;2023-08-20T03:37:27;100883.44;;;22.16;100.00
68525;BME280;55524;51.380;13.372;2023-08-20T03:39:53;100886.34;;;22.13;100.00
68525;BME280;55524;51.380;13.372;2023-08-20T03:42:20;100891.66;;;22.14;100.00
68525;BME280;55524;51.380;13.372;2023-08-20T03:44:46;100894.41;;;22.13;100.00
68525;BME280;55524;51.380;13.372;2023-08-20T03:47:12;100899.09;;;22.10;100.00
68525;BME280;55524;51.380;13.372;2023-08-20T03:49:39;100897.72;;;22.05;100.00
68525;BME280;55524;51.380;13.372;2023-08-20T03:52:05;100897.44;;;21.97;100.00
68525;BME280;55524;51.380;13.372;2023-08-20T03:54:33;100896.97;;;21.92;100.00
68525;BME280;55524;51.380;13.372;2023-08-20T03:56:59;100899.16;;;21.87;100.00
68525;BME280;55524;51.380;13.372;2023-08-20T03:59:26;100904.91;;;21.82;100.00
68525;BME280;55524;51.380;13.372;2023-08-20T04:01:52;100907.81;;;21.79;100.00
68525;BME280;55524;51.380;13.372;2023-08-20T04:04:18;100907.59;;;21.82;100.00
68525;BME280;55524;51.380;13.372;2023-08-20T04:06:44;100904.91;;;21.82;100.00
68525;BME280;55524;51.380;13.372;2023-08-20T04:09:11;100911.22;;;21.81;100.00
68525;BME280;55524;51.380;13.372;2023-08-20T04:11:37;100906.59;;;21.83;100.00
68525;BME280;55524;51.380;13.372;2023-08-20T04:14:03;100909.06;;;21.86;100.00
68525;BME280;55524;51.380;13.372;2023-08-20T04:16:30;100910.03;;;21.85;100.00
68525;BME280;55524;51.380;13.372;2023-08-20T04:18:56;100907.59;;;21.82;100.00
68525;BME280;55524;51.380;13.372;2023-08-20T04:21:23;100920.28;;;21.80;100.00
68525;BME280;55524;51.380;13.372;2023-08-20T04:23:49;100926.31;;;21.83;100.00
68525;BME280;55524;51.380;13.372;2023-08-20T04:26:15;100930.84;;;21.83;100.00
68525;BME280;55524;51.380;13.372;2023-08-20T04:28:42;100943.44;;;21.82;100.00
68525;BME280;55524;51.380;13.372;2023-08-20T04:31:08;100940.47;;;21.85;100.00
68525;BME280;55524;51.380;13.372;2023-08-20T04:33:35;100934.03;;;21.88;100.00
68525;BME280;55524;51.380;13.372;2023-08-20T04:36:01;100936.59;;;21.90;100.00
68525;BME280;55524;51.380;13.372;2023-08-20T04:38:27;100941.28;;;21.99;100.00
68525;BME280;55524;51.380;13.372;2023-08-20T04:40:54;100947.28;;;22.02;100.00
68525;BME280;55524;51.380;13.372;2023-08-20T04:43:20;100948.75;;;22.06;100.00
68525;BME280;55524;51.380;13.372;2023-08-20T04:45:46;100948.25;;;22.13;100.00
68525;BME280;55524;51.380;13.372;2023-08-20T04:48:12;100945.25;;;22.17;100.00
68525;BME280;55524;51.380;13.372;2023-08-20T04:50:38;100949.53;;;22.20;100.00
68525;BME280;55524;51.380;13.372;2023-08-20T04:53:05;100958.25;;;22.23;100.00
68525;BME280;55524;51.380;13.372;2023-08-20T04:55:31;100955.56;;;22.23;100.00
68525;BME280;55524;51.380;13.372;2023-08-20T04:57:57;100957.88;;;22.28;100.00
68525;BME280;55524;51.380;13.372;2023-08-20T05:00:23;100953.13;;;22.31;100.00
68525;BME280;55524;51.380;13.372;2023-08-20T05:02:50;100958.72;;;22.28;100.00
68525;BME280;55524;51.380;13.372;2023-08-20T05:05:16;100965.59;;;22.32;100.00
68525;BME280;55524;51.380;13.372;2023-08-20T05:07:43;100970.63;;;22.37;100.00
68525;BME280;55524;51.380;13.372;2023-08-20T05:10:10;100984.84;;;22.39;100.00
68525;BME280;55524;51.380;13.372;2023-08-20T05:12:36;100988.16;;;22.43;100.00
68525;BME280;55524;51.380;13.372;2023-08-20T05:15:03;100982.41;;;22.47;100.00
68525;BME280;55524;51.380;13.372;2023-08-20T05:17:30;101001.41;;;22.57;100.00
68525;BME280;55524;51.380;13.372;2023-08-20T05:19:56;101003.84;;;22.60;100.00
68525;BME280;55524;51.380;13.372;2023-08-20T05:22:22;101000.66;;;22.66;100.00
68525;BME280;55524;51.380;13.372;2023-08-20T05:24:49;100993.91;;;22.72;100.00
68525;BME280;55524;51.380;13.372;2023-08-20T05:27:16;100993.06;;;22.82;100.00
68525;BME280;55524;51.380;13.372;2023-08-20T05:29:46;100995.28;;;22.89;100.00
68525;BME280;55524;51.380;13.372;2023-08-20T05:32:12;101006.09;;;22.89;100.00
68525;BME280;55524;51.380;13.372;2023-08-20T05:34:39;101013.41;;;22.87;100.00
68525;BME280;55524;51.380;13.372;2023-08-20T05:37:05;101019.28;;;22.80;100.00
68525;BME280;55524;51.380;13.372;2023-08-20T05:39:37;101026.91;;;22.87;100.00
68525;BME280;55524;51.380;13.372;2023-08-20T05:42:04;101033.78;;;22.91;100.00
68525;BME280;55524;51.380;13.372;2023-08-20T05:44:31;101029.25;;;22.91;100.00
68525;BME280;55524;51.380;13.372;2023-08-20T05:46:57;101022.41;;;22.98;100.00
68525;BME280;55524;51.380;13.372;2023-08-20T05:49:23;101021.16;;;23.02;100.00
68525;BME280;55524;51.380;13.372;2023-08-20T05:51:49;101025.94;;;23.10;100.00
68525;BME280;55524;51.380;13.372;2023-08-20T05:54:16;101021.66;;;23.07;100.00
68525;BME280;55524;51.380;13.372;2023-08-20T05:56:43;101011.00;;;23.06;100.00
68525;BME280;55524;51.380;13.372;2023-08-20T05:59:10;101006.81;;;23.13;100.00
68525;BME280;55524;51.380;13.372;2023-08-20T06:01:36;101010.25;;;23.04;100.00
68525;BME280;55524;51.380;13.372;2023-08-20T06:04:05;101010.38;;;23.02;100.00
68525;BME280;55524;51.380;13.372;2023-08-20T06:06:32;101001.06;;;22.95;100.00
68525;BME280;55524;51.380;13.372;2023-08-20T06:08:58;100991.34;;;23.15;100.00
68525;BME280;55524;51.380;13.372;2023-08-20T06:11:24;101000.44;;;23.14;100.00
68525;BME280;55524;51.380;13.372;2023-08-20T06:13:51;101011.00;;;23.17;100.00
68525;BME280;55524;51.380;13.372;2023-08-20T06:16:17;101021.16;;;23.02;100.00
68525;BME280;55524;51.380;13.372;2023-08-20T06:18:43;101015.63;;;23.04;100.00
68525;BME280;55524;51.380;13.372;2023-08-20T06:21:09;101022.03;;;22.92;100.00
68525;BME280;55524;51.380;13.372;2023-08-20T06:23:36;101023.00;;;22.91;100.00
68525;BME280;55524;51.380;13.372;2023-08-20T06:26:02;101029.72;;;22.96;100.00
68525;BME280;55524;51.380;13.372;2023-08-20T06:28:28;101037.97;;;22.95;100.00
68525;BME280;55524;51.380;13.372;2023-08-20T06:30:54;101046.19;;;22.93;100.00
68525;BME280;55524;51.380;13.372;2023-08-20T06:33:21;101051.78;;;22.90;100.00
68525;BME280;55524;51.380;13.372;2023-08-20T06:35:47;101049.69;;;22.82;100.00
68525;BME280;55524;51.380;13.372;2023-08-20T06:38:13;101060.00;;;22.89;100.00
68525;BME280;55524;51.380;13.372;2023-08-20T06:40:40;101066.56;;;22.84;100.00
68525;BME280;55524;51.380;13.372;2023-08-20T06:43:07;101066.34;;;22.88;100.00
68525;BME280;55524;51.380;13.372;2023-08-20T06:45:33;101067.00;;;22.91;100.00
68525;BME280;55524;51.380;13.372;2023-08-20T06:47:59;101069.91;;;22.88;100.00
68525;BME280;55524;51.380;13.372;2023-08-20T06:50:26;101069.19;;;22.86;100.00
68525;BME280;55524;51.380;13.372;2023-08-20T06:52:52;101076.41;;;22.86;100.00
68525;BME280;55524;51.380;13.372;2023-08-20T06:55:18;101086.94;;;22.77;100.00
68525;BME280;55524;51.380;13.372;2023-08-20T06:57:45;101087.66;;;22.79;100.00
68525;BME280;55524;51.380;13.372;2023-08-20T07:00:11;101084.25;;;22.77;100.00
68525;BME280;55524;51.380;13.372;2023-08-20T07:02:37;101072.47;;;22.78;100.00
68525;BME280;55524;51.380;13.372;2023-08-20T07:05:04;101075.66;;;22.83;100.00
68525;BME280;55524;51.380;13.372;2023-08-20T07:07:30;101077.97;;;22.88;100.00
68525;BME280;55524;51.380;13.372;2023-08-20T07:09:56;101085.22;;;22.88;100.00
68525;BME280;55524;51.380;13.372;2023-08-20T07:12:23;101087.88;;;22.76;100.00
68525;BME280;55524;51.380;13.372;2023-08-20T07:14:49;101085.94;;;22.78;100.00
68525;BME280;55524;51.380;13.372;2023-08-20T07:17:15;101087.44;;;22.82;100.00
68525;BME280;55524;51.380;13.372;2023-08-20T07:19:42;101090.16;;;22.94;100.00
68525;BME280;55524;51.380;13.372;2023-08-20T07:22:08;101092.63;;;22.97;100.00
68525;BME280;55524;51.380;13.372;2023-08-20T07:24:34;101096.66;;;22.91;100.00
68525;BME280;55524;51.380;13.372;2023-08-20T07:27:01;101097.59;;;22.90;100.00
68525;BME280;55524;51.380;13.372;2023-08-20T07:29:30;101103.66;;;22.94;100.00
68525;BME280;55524;51.380;13.372;2023-08-20T07:31:56;101093.84;;;22.93;100.00
68525;BME280;55524;51.380;13.372;2023-08-20T07:34:23;101106.84;;;22.99;100.00
68525;BME280;55524;51.380;13.372;2023-08-20T07:36:49;101111.25;;;23.11;100.00
68525;BME280;55524;51.380;13.372;2023-08-20T07:39:16;101121.94;;;23.35;100.00
68525;BME280;55524;51.380;13.372;2023-08-20T07:41:42;101122.41;;;23.51;100.00
68525;BME280;55524;51.380;13.372;2023-08-20T07:44:09;101125.50;;;23.69;100.00
68525;BME280;55524;51.380;13.372;2023-08-20T07:46:35;101130.72;;;23.60;100.00
68525;BME280;55524;51.380;13.372;2023-08-20T07:49:02;101127.81;;;23.51;100.00
68525;BME280;55524;51.380;13.372;2023-08-20T07:51:28;101137.25;;;23.35;100.00
68525;BME280;55524;51.380;13.372;2023-08-20T07:53:55;101142.28;;;23.28;100.00
68525;BME280;55524;51.380;13.372;2023-08-20T07:56:21;101150.25;;;23.29;100.00
68525;BME280;55524;51.380;13.372;2023-08-20T07:58:48;101143.63;;;23.11;100.00
68525;BME280;55524;51.380;13.372;2023-08-20T08:01:14;101146.31;;;23.11;100.00
68525;BME280;55524;51.380;13.372;2023-08-20T08:03:41;101146.09;;;23.25;100.00
68525;BME280;55524;51.380;13.372;2023-08-20T08:06:07;101142.19;;;23.52;100.00
68525;BME280;55524;51.380;13.372;2023-08-20T08:08:34;101137.13;;;23.81;100.00
68525;BME280;55524;51.380;13.372;2023-08-20T08:11:00;101135.50;;;24.01;100.00
68525;BME280;55524;51.380;13.372;2023-08-20T08:13:27;101135.75;;;24.41;100.00
68525;BME280;55524;51.380;13.372;2023-08-20T08:15:53;101126.59;;;24.95;100.00
68525;BME280;55524;51.380;13.372;2023-08-20T08:18:20;101129.91;;;24.99;100.00
68525;BME280;55524;51.380;13.372;2023-08-20T08:20:46;101116.63;;;25.17;100.00
68525;BME280;55524;51.380;13.372;2023-08-20T08:23:13;101113.00;;;25.37;100.00
68525;BME280;55524;51.380;13.372;2023-08-20T08:25:40;101112.22;;;25.56;100.00
68525;BME280;55524;51.380;13.372;2023-08-20T08:28:07;101117.38;;;25.29;100.00
68525;BME280;55524;51.380;13.372;2023-08-20T08:30:33;101098.91;;;25.84;100.00
68525;BME280;55524;51.380;13.372;2023-08-20T08:33:00;101084.97;;;26.08;100.00
68525;BME280;55524;51.380;13.372;2023-08-20T08:35:26;101094.22;;;26.05;100.00
68525;BME280;55524;51.380;13.372;2023-08-20T08:37:53;101099.34;;;25.89;100.00
68525;BME280;55524;51.380;13.372;2023-08-20T08:40:19;101088.53;;;26.18;100.00
68525;BME280;55524;51.380;13.372;2023-08-20T08:42:49;101085.81;;;26.57;98.77
68525;BME280;55524;51.380;13.372;2023-08-20T08:45:21;101065.47;;;26.90;92.71
68525;BME280;55524;51.380;13.372;2023-08-20T08:47:48;101066.63;;;26.87;90.96
68525;BME280;55524;51.380;13.372;2023-08-20T08:50:15;101071.31;;;26.95;89.17
68525;BME280;55524;51.380;13.372;2023-08-20T08:52:42;101075.84;;;27.04;89.03
68525;BME280;55524;51.380;13.372;2023-08-20T08:55:10;101073.56;;;27.09;88.76
68525;BME280;55524;51.380;13.372;2023-08-20T08:57:37;101091.94;;;27.25;88.19
68525;BME280;55524;51.380;13.372;2023-08-20T09:00:04;101080.44;;;27.41;85.81
68525;BME280;55524;51.380;13.372;2023-08-20T09:02:31;101092.28;;;27.40;86.83
68525;BME280;55524;51.380;13.372;2023-08-20T09:04:58;101099.84;;;27.09;88.50
68525;BME280;55524;51.380;13.372;2023-08-20T09:07:24;101102.81;;;27.15;88.82
68525;BME280;55524;51.380;13.372;2023-08-20T09:09:50;101081.56;;;27.66;84.15
68525;BME280;55524;51.380;13.372;2023-08-20T09:12:18;101054.56;;;27.92;80.21
68525;BME280;55524;51.380;13.372;2023-08-20T09:14:49;101062.75;;;28.18;79.84
68525;BME280;55524;51.380;13.372;2023-08-20T09:17:16;101051.31;;;28.50;76.44
68525;BME280;55524;51.380;13.372;2023-08-20T09:19:44;101078.44;;;28.06;80.51
68525;BME280;55524;51.380;13.372;2023-08-20T09:22:14;101077.00;;;28.12;80.07
68525;BME280;55524;51.380;13.372;2023-08-20T09:24:54;101058.44;;;28.43;77.21
68525;BME280;55524;51.380;13.372;2023-08-20T09:27:22;101054.13;;;28.23;77.41
68525;BME280;55524;51.380;13.372;2023-08-20T09:29:50;101035.50;;;28.72;74.69
68525;BME280;55524;51.380;13.372;2023-08-20T09:32:22;101040.91;;;28.46;75.11
68525;BME280;55524;51.380;13.372;2023-08-20T09:34:49;101052.47;;;28.04;76.59
68525;BME280;55524;51.380;13.372;2023-08-20T09:37:19;101077.81;;;27.77;78.84
68525;BME280;55524;51.380;13.372;2023-08-20T09:39:46;101053.75;;;28.17;76.26
68525;BME280;55524;51.380;13.372;2023-08-20T09:42:14;101053.13;;;28.06;78.03
68525;BME280;55524;51.380;13.372;2023-08-20T09:44:42;101044.13;;;28.41;77.82
68525;BME280;55524;51.380;13.372;2023-08-20T09:47:13;101020.56;;;28.76;73.56
68525;BME280;55524;51.380;13.372;2023-08-20T09:49:42;101007.38;;;29.31;69.89
68525;BME280;55524;51.380;13.372;2023-08-20T09:52:16;101014.22;;;29.01;71.76
68525;BME280;55524;51.380;13.372;2023-08-20T09:57:34;100992.31;;;29.61;70.32
68525;BME280;55524;51.380;13.372;2023-08-20T10:00:02;101004.34;;;29.34;70.39
68525;BME280;55524;51.380;13.372;2023-08-20T10:02:29;100993.09;;;29.46;67.78
68525;BME280;55524;51.380;13.372;2023-08-20T10:04:56;100995.66;;;29.39;67.72
68525;BME280;55524;51.380;13.372;2023-08-20T10:07:29;101008.13;;;28.99;70.38
68525;BME280;55524;51.380;13.372;2023-08-20T10:10:02;100994.66;;;29.56;68.69
68525;BME280;55524;51.380;13.372;2023-08-20T10:12:29;100985.19;;;29.77;66.66
68525;BME280;55524;51.380;13.372;2023-08-20T10:14:57;100978.41;;;30.05;66.16
68525;BME280;55524;51.380;13.372;2023-08-20T10:17:25;100972.41;;;30.10;65.08
68525;BME280;55524;51.380;13.372;2023-08-20T10:19:56;100963.56;;;30.24;63.45
68525;BME280;55524;51.380;13.372;2023-08-20T10:22:32;100963.03;;;30.04;62.55
68525;BME280;55524;51.380;13.372;2023-08-20T10:24:58;100955.88;;;30.03;62.95
68525;BME280;55524;51.380;13.372;2023-08-20T10:27:27;100960.31;;;30.29;62.42
68525;BME280;55524;51.380;13.372;2023-08-20T10:29:55;100953.72;;;30.79;60.42
68525;BME280;55524;51.380;13.372;2023-08-20T10:32:45;100956.72;;;30.92;60.58
68525;BME280;55524;51.380;13.372;2023-08-20T10:35:22;100956.81;;;30.59;61.18
68525;BME280;55524;51.380;13.372;2023-08-20T10:40:53;100968.91;;;31.21;62.95
68525;BME280;55524;51.380;13.372;2023-08-20T10:46:21;100934.03;;;31.31;59.19
68525;BME280;55524;51.380;13.372;2023-08-20T10:48:53;100940.66;;;30.50;61.25
68525;BME280;55524;51.380;13.372;2023-08-20T10:51:35;100935.00;;;31.38;60.00
68525;BME280;55524;51.380;13.372;2023-08-20T10:54:08;100913.56;;;31.73;57.33
68525;BME280;55524;51.380;13.372;2023-08-20T10:56:54;100912.09;;;31.39;57.51
68525;BME280;55524;51.380;13.372;2023-08-20T10:59:26;100922.47;;;31.21;57.24
68525;BME280;55524;51.380;13.372;2023-08-20T11:01:58;100913.38;;;31.28;57.86
68525;BME280;55524;51.380;13.372;2023-08-20T11:04:28;100911.38;;;31.68;57.39
68525;BME280;55524;51.380;13.372;2023-08-20T11:06:56;100899.88;;;31.73;55.40
68525;BME280;55524;51.380;13.372;2023-08-20T11:09:24;100906.56;;;31.47;57.40
68525;BME280;55524;51.380;13.372;2023-08-20T11:11:52;100901.72;;;31.57;56.03
68525;BME280;55524;51.380;13.372;2023-08-20T11:14:19;100900.13;;;31.86;55.16
68525;BME280;55524;51.380;13.372;2023-08-20T11:16:46;100896.59;;;32.00;55.44
68525;BME280;55524;51.380;13.372;2023-08-20T11:19:15;100889.06;;;32.17;54.21
68525;BME280;55524;51.380;13.372;2023-08-20T11:21:44;100893.00;;;32.15;54.66
68525;BME280;55524;51.380;13.372;2023-08-20T11:24:12;100883.41;;;32.33;53.66
68525;BME280;55524;51.380;13.372;2023-08-20T11:26:42;100886.06;;;32.42;54.26
68525;BME280;55524;51.380;13.372;2023-08-20T11:29:11;100869.88;;;32.76;52.57
68525;BME280;55524;51.380;13.372;2023-08-20T11:31:38;100880.47;;;32.65;53.06
68525;BME280;55524;51.380;13.372;2023-08-20T11:34:06;100873.22;;;32.57;52.99
68525;BME280;55524;51.380;13.372;2023-08-20T11:36:33;100865.38;;;32.69;51.73
68525;BME280;55524;51.380;13.372;2023-08-20T11:39:01;100865.84;;;32.58;51.58
68525;BME280;55524;51.380;13.372;2023-08-20T11:41:28;100878.59;;;32.65;52.40
68525;BME280;55524;51.380;13.372;2023-08-20T11:43:54;100878.38;;;32.22;52.59
68525;BME280;55524;51.380;13.372;2023-08-20T11:46:23;100878.31;;;32.75;52.42
68525;BME280;55524;51.380;13.372;2023-08-20T11:51:27;100869.56;;;32.86;51.04
68525;BME280;55524;51.380;13.372;2023-08-20T11:53:53;100874.66;;;33.25;50.97
68525;BME280;55524;51.380;13.372;2023-08-20T11:56:19;100868.88;;;33.57;50.57
68525;BME280;55524;51.380;13.372;2023-08-20T11:58:51;100867.22;;;33.84;50.83
68525;BME280;55524;51.380;13.372;2023-08-20T12:01:20;100847.34;;;33.32;49.63
68525;BME280;55524;51.380;13.372;2023-08-20T12:03:46;100865.22;;;33.28;51.93
68525;BME280;55524;51.380;13.372;2023-08-20T12:06:22;100845.31;;;33.90;48.99
68525;BME280;55524;51.380;13.372;2023-08-20T12:08:50;100833.22;;;34.13;47.35
68525;BME280;55524;51.380;13.372;2023-08-20T12:11:16;100851.25;;;33.66;49.77
68525;BME280;55524;51.380;13.372;2023-08-20T12:13:43;100827.38;;;34.22;47.02
68525;BME280;55524;51.380;13.372;2023-08-20T12:16:09;100839.63;;;33.92;48.12
68525;BME280;55524;51.380;13.372;2023-08-20T12:18:35;100820.06;;;34.36;46.52
68525;BME280;55524;51.380;13.372;2023-08-20T12:21:02;100834.38;;;33.69;49.22
68525;BME280;55524;51.380;13.372;2023-08-20T12:23:28;100822.88;;;33.80;47.92
68525;BME280;55524;51.380;13.372;2023-08-20T12:25:54;100816.06;;;33.97;48.28
68525;BME280;55524;51.380;13.372;2023-08-20T12:28:21;100834.84;;;34.00;47.99
68525;BME280;55524;51.380;13.372;2023-08-20T12:30:48;100840.88;;;33.40;49.62
68525;BME280;55524;51.380;13.372;2023-08-20T12:33:14;100844.13;;;33.28;49.95
68525;BME280;55524;51.380;13.372;2023-08-20T12:35:41;100837.41;;;33.31;49.44
68525;BME280;55524;51.380;13.372;2023-08-20T12:38:07;100830.63;;;33.48;48.08
68525;BME280;55524;51.380;13.372;2023-08-20T12:40:33;100836.50;;;33.02;49.15
68525;BME280;55524;51.380;13.372;2023-08-20T12:43:00;100843.91;;;32.87;49.66
68525;BME280;55524;51.380;13.372;2023-08-20T12:45:26;100833.50;;;33.19;49.11
68525;BME280;55524;51.380;13.372;2023-08-20T12:47:53;100820.34;;;33.78;47.88
68525;BME280;55524;51.380;13.372;2023-08-20T12:50:20;100823.72;;;33.31;48.77
68525;BME280;55524;51.380;13.372;2023-08-20T12:52:46;100833.78;;;32.88;49.82
68525;BME280;55524;51.380;13.372;2023-08-20T12:55:15;100813.69;;;32.80;48.36